Bookmark and Share
Track history (hours):
 

Nrc Patriot II

More information available from US FCC via Universal Licensing System and Coast Guard Vessel Documentation Center.

Last reported at 2014-Apr-22 10:19 UTC. Time now 2014-Apr-23 09:28 UTC.
Position N 33°40' W 118°03'.

Length 30 m; draft 3.5 m.

Type: Port tender. MMSI: 366855940.

NotesDate/timePositionNaut miles runAvg speedWind from/ knotsBaromVisibWave heightAir tempDewpointWater temp
2014-Apr-22 10:19N 33°40' W 118°03'0 0.0
2014-Apr-22 09:12N 33°40' W 118°03'0 0.0
2014-Apr-22 08:29N 33°40' W 118°03'0 0.0
2014-Apr-22 07:20N 33°40' W 118°03'0 0.0
2014-Apr-22 06:33N 33°40' W 118°03'0 0.0
2014-Apr-22 05:33N 33°40' W 118°03'4 1.9
2014-Apr-22 03:34N 33°41' W 118°07'8 8.3
2014-Apr-22 02:33N 33°44' W 118°16'0 0.0
2014-Apr-22 01:32N 33°44' W 118°16'1 0.6
2014-Apr-22 00:14N 33°43' W 118°16'6 9.3
2014-Apr-21 23:33N 33°40' W 118°09'6 5.6
2014-Apr-21 22:33N 33°40' W 118°03'0 0.0
2014-Apr-21 21:33N 33°40' W 118°03'8 6.8
2014-Apr-21 20:21N 33°40' W 118°12'5 1.5
2014-Apr-21 17:06N 33°44' W 118°16'0 0.0
2014-Apr-21 16:33N 33°44' W 118°16'0 0.0
2014-Apr-21 13:28N 33°44' W 118°16'0 0.0
2014-Apr-21 11:31N 33°44' W 118°16'0 0.0
2014-Apr-21 06:06N 33°44' W 118°16'0 0.0
2014-Apr-21 04:30N 33°44' W 118°16'0 0.0
2014-Apr-21 03:32N 33°44' W 118°16'0 0.0
2014-Apr-21 02:17N 33°44' W 118°16'0 0.1
2014-Apr-21 01:33N 33°44' W 118°16'8 7.9
2014-Apr-21 00:33N 33°42' W 118°07'4 4.0
2014-Apr-20 23:31N 33°40' W 118°03'0 0.0
2014-Apr-20 19:33N 33°40' W 118°03'  
2014-Apr-17 18:18N 33°44' W 118°16'1 0.2
2014-Apr-17 13:18N 33°43' W 118°16'810.3
2014-Apr-17 12:30N 33°41' W 118°06'3 2.2
2014-Apr-17 11:04N 33°40' W 118°03'0 0.0
2014-Apr-17 10:22N 33°40' W 118°03'11 1.5
2014-Apr-17 03:04N 33°43' W 118°15'1 2.6
2014-Apr-17 02:30N 33°44' W 118°16'0 0.0
2014-Apr-17 00:30N 33°44' W 118°16'4 0.3
2014-Apr-16 10:19N 33°43' W 118°11'8 6.7
2014-Apr-16 09:08N 33°40' W 118°03'0 0.2
2014-Apr-16 08:11N 33°40' W 118°02'0 0.1
2014-Apr-16 05:32N 33°40' W 118°03'0 0.2
2014-Apr-16 04:33N 33°40' W 118°02'0 0.0
2014-Apr-16 03:33N 33°40' W 118°02'6 6.5
2014-Apr-16 02:34N 33°43' W 118°09'6 5.9
2014-Apr-16 01:33N 33°44' W 118°16'0 0.0
2014-Apr-16 00:33N 33°44' W 118°16'0 0.1
2014-Apr-15 23:33N 33°44' W 118°16'0 0.0
2014-Apr-15 22:34N 33°44' W 118°16'0 0.0
2014-Apr-15 21:33N 33°44' W 118°16'0 0.0
2014-Apr-15 20:33N 33°44' W 118°16'0 0.0
2014-Apr-15 19:33N 33°44' W 118°16'0 0.0
2014-Apr-15 18:34N 33°44' W 118°16'0 0.1
2014-Apr-15 17:33N 33°44' W 118°16'0 0.1
2014-Apr-15 16:31N 33°44' W 118°16'0 0.0
2014-Apr-15 15:30N 33°44' W 118°16'0 0.0
2014-Apr-15 12:31N 33°44' W 118°16'0 0.0
2014-Apr-15 10:34N 33°44' W 118°16'8 8.0
2014-Apr-15 09:31N 33°42' W 118°07'4 2.1
2014-Apr-15 07:34N 33°40' W 118°02'0 0.0
2014-Apr-15 06:34N 33°40' W 118°02'0 0.0
2014-Apr-15 05:34N 33°40' W 118°02'0 0.1
2014-Apr-15 03:34N 33°40' W 118°03'7 6.3
2014-Apr-15 02:29N 33°43' W 118°10'5 5.8
2014-Apr-15 01:33N 33°44' W 118°16'0 0.0
2014-Apr-15 00:34N 33°44' W 118°16'0 0.0
2014-Apr-14 23:34N 33°44' W 118°16'0 0.0
2014-Apr-14 22:34N 33°44' W 118°16'1 1.0
2014-Apr-14 21:34N 33°43' W 118°16'9 9.0
2014-Apr-14 20:34N 33°41' W 118°05'3 2.5
2014-Apr-14 19:34N 33°40' W 118°03'0 0.0
2014-Apr-14 18:34N 33°40' W 118°03'  

Dump ship's entire track history

sailing weather and tide predictions

Nrc Patriot II — WDA8587 — position and weather